Time;durP1;ratioP1;P1;durP2;ratioP2;P2;SDS_P1;SDS_P2;PMS_P1;PMS_P2;Temp;Humidity;BMP_temperature;BMP_pressure;BME280_temperature;BME280_humidity;BME280_pressure;Samples;Min_cycle;Max_cycle;Signal;HPM_P1;HPM_P2
2023/09/17 00:02:17;;;;;;;3.40;3.20;;;20.90;76.30;20.10;96389.00;;;;5091851;28;20194;-86
2023/09/17 00:04:45;;;;;;;3.50;3.30;;;20.90;75.60;20.00;96399.00;;;;5088436;28;20215;-86
2023/09/17 00:07:12;;;;;;;4.03;3.63;;;20.80;75.60;20.00;96402.00;;;;5086796;28;20218;-86
2023/09/17 00:09:39;;;;;;;3.67;3.33;;;20.80;75.60;20.00;96401.00;;;;5082370;28;20196;-86
2023/09/17 00:12:07;;;;;;;3.90;3.60;;;20.80;75.70;19.90;96401.00;;;;5091884;28;20192;-86
2023/09/17 00:14:35;;;;;;;3.67;3.47;;;20.70;75.60;19.90;96405.00;;;;5087725;28;20206;-86
2023/09/17 00:17:02;;;;;;;4.30;4.00;;;20.70;75.70;19.90;96398.00;;;;5090844;28;20246;-86
2023/09/17 00:19:32;;;;;;;3.60;3.30;;;20.70;75.70;19.90;96410.00;;;;5083214;28;20201;-86
2023/09/17 00:22:02;;;;;;;3.50;3.30;;;20.70;75.80;19.80;96402.00;;;;5099329;28;20217;-86
2023/09/17 00:24:30;;;;;;;3.40;3.10;;;20.60;76.50;19.80;96394.00;;;;5100358;28;20241;-86
2023/09/17 00:26:57;;;;;;;4.10;3.80;;;20.60;75.80;19.80;96399.00;;;;5097535;28;20779;-86
2023/09/17 00:29:25;;;;;;;4.30;4.00;;;20.60;75.90;19.80;96402.00;;;;5106045;28;20258;-85
2023/09/17 00:31:52;;;;;;;3.93;3.63;;;20.60;76.20;19.80;96399.00;;;;5101771;28;20195;-85
2023/09/17 00:34:19;;;;;;;4.30;3.90;;;20.50;76.20;19.70;96400.00;;;;5091786;28;20551;-86
2023/09/17 00:36:48;;;;;;;4.67;4.27;;;20.50;76.30;19.70;96392.00;;;;5096888;28;20299;-86
2023/09/17 00:39:15;;;;;;;4.70;4.17;;;20.50;76.30;19.70;96403.00;;;;5093354;28;20198;-85
2023/09/17 00:41:42;;;;;;;3.80;3.60;;;20.50;76.40;19.70;96396.00;;;;5087655;28;20291;-86
2023/09/17 00:44:09;;;;;;;4.10;3.80;;;20.50;77.20;19.70;96406.00;;;;5090745;28;20195;-86
2023/09/17 00:46:38;;;;;;;4.17;3.77;;;20.50;76.30;19.70;96397.00;;;;5083271;28;20562;-85
2023/09/17 00:49:12;;;;;;;4.03;3.73;;;20.50;76.30;19.70;96396.00;;;;5094677;28;20191;-85
2023/09/17 00:51:40;;;;;;;4.20;3.83;;;20.50;76.30;19.70;96396.00;;;;5091182;28;20262;-85
2023/09/17 00:54:12;;;;;;;4.60;3.90;;;20.50;76.40;19.70;96403.00;;;;5089378;28;20207;-86
2023/09/17 00:56:39;;;;;;;4.67;4.27;;;20.50;76.60;19.70;96399.00;;;;5088501;28;20218;-85
2023/09/17 00:59:07;;;;;;;4.10;3.70;;;20.40;76.70;19.70;96399.00;;;;5087667;28;20285;-86
2023/09/17 01:01:35;;;;;;;4.23;3.83;;;20.40;76.80;19.70;96402.00;;;;5082939;28;20199;-86
2023/09/17 01:04:04;;;;;;;3.93;3.63;;;20.40;76.80;19.70;96399.00;;;;5089991;28;20194;-85
2023/09/17 01:06:31;;;;;;;4.37;3.83;;;20.40;76.70;19.60;96403.00;;;;5087890;28;20223;-85
2023/09/17 01:08:59;;;;;;;4.30;3.90;;;20.40;76.50;19.60;96399.00;;;;5091856;28;20195;-86
2023/09/17 01:11:28;;;;;;;4.03;3.73;;;20.40;76.50;19.60;96397.00;;;;5081925;28;20201;-85
2023/09/17 01:14:08;;;;;;;4.37;4.07;;;20.40;76.50;19.60;96404.00;;;;5087787;28;20242;-85
2023/09/17 01:16:35;;;;;;;3.67;3.43;;;20.40;76.70;19.60;96398.00;;;;5080932;28;20724;-85
2023/09/17 01:19:03;;;;;;;4.70;4.30;;;20.40;76.70;19.60;96400.00;;;;5094003;28;20195;-85
2023/09/17 01:21:39;;;;;;;4.20;3.90;;;20.40;76.70;19.60;96400.00;;;;5085977;28;20292;-85
2023/09/17 01:24:22;;;;;;;4.03;3.73;;;20.40;76.80;19.60;96399.00;;;;5089733;28;20198;-85
2023/09/17 01:27:02;;;;;;;3.80;3.50;;;20.40;76.90;19.60;96394.00;;;;5094296;28;20215;-85
2023/09/17 01:29:33;;;;;;;4.97;3.40;;;20.40;77.00;19.60;96389.00;;;;5090002;28;20197;-85
2023/09/17 01:32:00;;;;;;;3.90;3.60;;;20.40;77.20;19.60;96399.00;;;;5089681;28;20192;-85
2023/09/17 01:34:29;;;;;;;3.50;3.13;;;20.40;77.20;19.60;96389.00;;;;5086566;28;20199;-85
2023/09/17 01:37:03;;;;;;;4.33;4.03;;;20.40;77.20;19.60;96399.00;;;;5085036;28;20313;-85
2023/09/17 01:39:40;;;;;;;3.63;3.37;;;20.40;77.20;19.60;96404.00;;;;5088335;28;20195;-85
2023/09/17 01:42:11;;;;;;;3.50;3.30;;;20.40;76.90;19.60;96398.00;;;;5085470;28;20194;-85
2023/09/17 01:44:41;;;;;;;3.80;3.50;;;20.40;76.80;19.60;96405.00;;;;5089174;28;20200;-85
2023/09/17 01:47:09;;;;;;;3.87;3.57;;;20.40;76.80;19.50;96403.00;;;;5097413;28;20298;-85
2023/09/17 01:49:39;;;;;;;3.67;3.37;;;20.30;76.60;19.50;96398.00;;;;5087503;28;20253;-85
2023/09/17 01:52:07;;;;;;;3.77;3.47;;;20.30;76.50;19.50;96400.00;;;;5092474;28;20259;-85
2023/09/17 01:54:35;;;;;;;3.10;2.90;;;20.30;76.50;19.50;96398.00;;;;5106339;28;20269;-86
2023/09/17 01:57:02;;;;;;;3.90;3.60;;;20.30;76.40;19.40;96403.00;;;;5112951;28;20213;-85
2023/09/17 01:59:31;;;;;;;3.43;3.20;;;20.30;77.00;19.40;96394.00;;;;5105895;28;20195;-85
2023/09/17 02:01:58;;;;;;;3.43;3.13;;;20.20;76.10;19.40;96404.00;;;;5108949;28;20206;-85
2023/09/17 02:04:26;;;;;;;3.87;3.67;;;20.20;76.80;19.30;96407.00;;;;5105016;28;20246;-85
2023/09/17 02:06:53;;;;;;;3.90;3.60;;;20.20;76.20;19.30;96396.00;;;;5102403;28;20258;-85
2023/09/17 02:09:21;;;;;;;3.90;3.67;;;20.20;76.20;19.30;96397.00;;;;5102620;28;20212;-85
2023/09/17 02:11:48;;;;;;;4.07;3.77;;;20.10;76.40;19.30;96395.00;;;;5102205;28;20236;-84
2023/09/17 02:14:16;;;;;;;3.97;3.67;;;20.10;76.70;19.30;96392.00;;;;5090809;28;20640;-84
2023/09/17 02:16:45;;;;;;;4.23;3.83;;;20.10;76.90;19.30;96395.00;;;;5090122;28;20212;-85
2023/09/17 02:19:12;;;;;;;3.40;3.20;;;20.10;77.00;19.30;96389.00;;;;5091009;28;20206;-85
2023/09/17 02:21:40;;;;;;;4.13;3.60;;;20.10;77.00;19.30;96390.00;;;;5088382;28;20696;-85
2023/09/17 02:24:08;;;;;;;3.70;3.37;;;20.00;77.00;19.30;96389.00;;;;5069302;28;20260;-85
2023/09/17 02:26:35;;;;;;;3.93;3.60;;;20.00;77.00;19.20;96392.00;;;;5086856;28;20226;-85
2023/09/17 02:29:04;;;;;;;4.50;4.07;;;20.00;77.00;19.20;96388.00;;;;5082264;28;20640;-85
2023/09/17 02:31:30;;;;;;;3.87;3.57;;;20.00;77.80;19.20;96391.00;;;;5081433;28;20189;-85
2023/09/17 02:33:58;;;;;;;3.73;3.47;;;20.00;77.10;19.20;96389.00;;;;5088779;28;20222;-85
2023/09/17 02:36:25;;;;;;;3.50;3.20;;;20.00;77.10;19.20;96386.00;;;;5080534;28;20603;-85
2023/09/17 02:38:52;;;;;;;4.10;3.80;;;19.90;77.20;19.20;96389.00;;;;5086952;28;20199;-85
2023/09/17 02:41:20;;;;;;;3.80;3.50;;;20.00;77.40;19.20;96389.00;;;;5082831;28;20206;-85
2023/09/17 02:43:47;;;;;;;5.60;3.40;;;19.90;77.30;19.10;96386.00;;;;5092436;28;20256;-85
2023/09/17 02:46:14;;;;;;;4.03;3.73;;;19.90;77.20;19.20;96389.00;;;;5089143;28;20248;-85
2023/09/17 02:48:41;;;;;;;3.73;3.43;;;20.00;77.20;19.10;96387.00;;;;5082575;28;20601;-85
2023/09/17 02:51:10;;;;;;;3.70;3.40;;;19.90;77.00;19.10;96395.00;;;;5082399;28;20197;-85
2023/09/17 02:53:38;;;;;;;3.67;3.37;;;19.90;76.90;19.10;96396.00;;;;5089088;28;20201;-85
2023/09/17 02:56:05;;;;;;;4.40;3.57;;;19.90;76.80;19.10;96405.00;;;;5085742;28;20319;-85
2023/09/17 02:58:32;;;;;;;3.90;3.60;;;19.90;76.70;19.10;96398.00;;;;5087381;28;20219;-85
2023/09/17 03:01:01;;;;;;;3.70;3.40;;;19.90;76.70;19.00;96397.00;;;;5083732;28;20197;-85
2023/09/17 03:03:28;;;;;;;3.97;3.70;;;19.80;76.50;19.00;96409.00;;;;5087894;28;20203;-86
2023/09/17 03:05:58;;;;;;;3.47;3.27;;;19.80;76.40;19.00;96407.00;;;;5085317;28;20218;-85
2023/09/17 03:08:27;;;;;;;3.60;3.30;;;19.80;76.30;18.90;96406.00;;;;5083928;28;20195;-85
2023/09/17 03:10:59;;;;;;;4.07;3.40;;;19.80;76.20;18.90;96415.00;;;;5088635;28;20199;-85
2023/09/17 03:13:27;;;;;;;4.47;3.43;;;19.80;76.20;18.90;96421.00;;;;5084669;28;20195;-85
2023/09/17 03:15:57;;;;;;;3.30;3.10;;;19.80;76.40;18.90;96424.00;;;;5091875;28;20306;-85
2023/09/17 03:18:25;;;;;;;3.70;3.40;;;19.70;76.20;18.80;96423.00;;;;5087322;28;20222;-85
2023/09/17 03:20:53;;;;;;;3.80;3.50;;;19.70;76.20;18.80;96428.00;;;;5087576;28;20195;-84
2023/09/17 03:23:20;;;;;;;3.63;3.43;;;19.70;76.10;18.80;96421.00;;;;5085327;28;20264;-85
2023/09/17 03:25:49;;;;;;;4.07;3.77;;;19.60;76.80;18.70;96435.00;;;;5088938;28;20219;-85
2023/09/17 03:28:17;;;;;;;4.00;3.70;;;19.60;75.90;18.70;96435.00;;;;5084720;28;20188;-84
2023/09/17 03:30:44;;;;;;;3.67;3.47;;;19.50;76.10;18.60;96445.00;;;;5091110;28;20274;-84
2023/09/17 03:33:13;;;;;;;5.67;3.80;;;19.50;76.30;18.60;96442.00;;;;5090704;28;20287;-84
2023/09/17 03:35:41;;;;;;;4.47;4.07;;;19.50;76.40;18.60;96453.00;;;;5081009;28;20212;-84
2023/09/17 03:38:09;;;;;;;4.17;3.80;;;19.40;76.40;18.60;96445.00;;;;5083063;28;20192;-84
2023/09/17 03:40:36;;;;;;;4.53;4.13;;;19.50;76.60;18.60;96443.00;;;;5082723;27;20257;-85
2023/09/17 03:43:05;;;;;;;4.33;4.00;;;19.40;76.70;18.60;96447.00;;;;5087009;28;20206;-84
2023/09/17 03:45:33;;;;;;;4.30;4.00;;;19.40;77.00;18.60;96444.00;;;;5079761;28;20239;-85
2023/09/17 03:48:04;;;;;;;4.40;4.10;;;19.40;77.30;18.60;96438.00;;;;5084878;28;20648;-84
2023/09/17 03:50:33;;;;;;;4.03;3.73;;;19.40;77.50;18.60;96434.00;;;;5056799;28;20199;-85
2023/09/17 03:53:05;;;;;;;4.10;3.80;;;19.40;77.40;18.60;96426.00;;;;5090949;28;20203;-85
2023/09/17 03:55:33;;;;;;;4.17;3.87;;;19.40;77.40;18.60;96427.00;;;;5092884;28;20232;-84
2023/09/17 03:58:01;;;;;;;4.13;3.83;;;19.40;77.60;18.60;96433.00;;;;5089849;28;20192;-85
2023/09/17 04:00:29;;;;;;;3.87;3.57;;;19.40;78.40;18.60;96437.00;;;;5087410;28;20204;-84
2023/09/17 04:02:57;;;;;;;4.00;3.63;;;19.40;77.50;18.60;96440.00;;;;5087554;28;20219;-84
2023/09/17 04:05:24;;;;;;;4.03;3.70;;;19.40;77.50;18.60;96439.00;;;;5088950;28;20257;-85
2023/09/17 04:07:53;;;;;;;4.27;3.97;;;19.40;77.30;18.60;96443.00;;;;5105764;28;20263;-85
2023/09/17 04:10:21;;;;;;;4.30;4.00;;;19.40;77.20;18.60;96445.00;;;;5092954;28;20211;-85
2023/09/17 04:12:48;;;;;;;3.63;3.43;;;19.40;77.10;18.60;96441.00;;;;5091827;28;20191;-84
2023/09/17 04:15:19;;;;;;;4.30;3.90;;;19.40;77.10;18.50;96441.00;;;;5090860;28;20276;-84
2023/09/17 04:17:51;;;;;;;4.73;3.83;;;19.40;77.20;18.50;96439.00;;;;5088412;28;20199;-84
2023/09/17 04:20:23;;;;;;;4.57;3.90;;;19.40;77.30;18.50;96431.00;;;;5090140;28;20202;-84
2023/09/17 04:22:52;;;;;;;4.50;4.10;;;19.40;77.40;18.50;96426.00;;;;5089287;28;20199;-85
2023/09/17 04:25:20;;;;;;;4.13;3.83;;;19.40;77.60;18.60;96430.00;;;;5089297;28;20221;-85
2023/09/17 04:27:49;;;;;;;4.60;4.20;;;19.40;77.60;18.60;96432.00;;;;5089968;28;20252;-84
2023/09/17 04:30:17;;;;;;;6.03;4.27;;;19.40;77.50;18.50;96427.00;;;;5088303;28;20614;-84
2023/09/17 04:32:47;;;;;;;4.57;3.90;;;19.40;77.50;18.50;96437.00;;;;5087777;28;20211;-84
2023/09/17 04:35:18;;;;;;;4.23;3.83;;;19.40;77.50;18.50;96447.00;;;;5080823;28;20321;-84
2023/09/17 04:37:48;;;;;;;4.07;3.77;;;19.30;77.30;18.50;96450.00;;;;5073032;28;20215;-84
2023/09/17 04:40:17;;;;;;;3.97;3.67;;;19.40;77.30;18.50;96453.00;;;;5089080;28;20231;-84
2023/09/17 04:42:47;;;;;;;4.83;4.10;;;19.30;77.00;18.50;96456.00;;;;5092144;28;20200;-84
2023/09/17 04:45:34;;;;;;;3.90;3.67;;;19.30;77.10;18.50;96445.00;;;;5082750;28;20708;-84
2023/09/17 04:48:02;;;;;;;3.53;3.30;;;19.30;76.90;18.50;96446.00;;;;5090583;28;20199;-84
2023/09/17 04:50:30;;;;;;;3.90;3.60;;;19.40;77.10;18.50;96454.00;;;;5089327;28;20195;-85
2023/09/17 04:52:58;;;;;;;3.80;3.60;;;19.30;77.00;18.50;96446.00;;;;5089914;28;20209;-84
2023/09/17 04:55:25;;;;;;;4.27;3.87;;;19.30;77.00;18.50;96444.00;;;;5092324;28;20227;-84
2023/09/17 04:57:53;;;;;;;3.90;3.60;;;19.30;77.10;18.40;96448.00;;;;5091735;28;20207;-85
2023/09/17 05:00:21;;;;;;;4.47;4.10;;;19.30;77.30;18.40;96441.00;;;;5090798;28;20195;-84
2023/09/17 05:02:49;;;;;;;4.43;4.03;;;19.30;77.20;18.40;96443.00;;;;5091957;28;20257;-83
2023/09/17 05:05:18;;;;;;;4.27;3.97;;;19.30;77.20;18.40;96448.00;;;;5091484;28;20223;-84
2023/09/17 05:07:48;;;;;;;4.50;4.10;;;19.30;77.30;18.40;96456.00;;;;5088790;28;20277;-84
2023/09/17 05:10:16;;;;;;;4.53;3.87;;;19.20;77.00;18.40;96461.00;;;;5084186;28;20200;-83
2023/09/17 05:12:43;;;;;;;4.13;3.83;;;19.30;77.00;18.40;96456.00;;;;5091638;28;20200;-84
2023/09/17 05:15:12;;;;;;;3.77;3.47;;;19.20;77.10;18.30;96458.00;;;;5092589;28;20207;-84
2023/09/17 05:17:39;;;;;;;4.23;3.93;;;19.20;77.20;18.30;96465.00;;;;5093407;28;20249;-84
2023/09/17 05:20:08;;;;;;;4.10;3.47;;;19.20;77.30;18.30;96470.00;;;;5091981;28;20200;-84
2023/09/17 05:22:35;;;;;;;5.83;5.43;;;19.20;77.30;18.30;96464.00;;;;5092203;28;20207;-84
2023/09/17 05:25:09;;;;;;;4.90;4.60;;;19.10;77.30;18.30;96467.00;;;;5091736;28;20679;-84
2023/09/17 05:27:36;;;;;;;4.13;3.83;;;19.20;77.40;18.30;96462.00;;;;5092553;28;20230;-84
2023/09/17 05:30:04;;;;;;;4.03;3.80;;;19.20;77.60;18.30;96457.00;;;;5091710;28;20200;-84
2023/09/17 05:32:31;;;;;;;3.83;3.53;;;19.20;77.60;18.30;96463.00;;;;5091512;28;20612;-84
2023/09/17 05:34:59;;;;;;;4.00;3.60;;;19.20;77.70;18.30;96469.00;;;;5094321;28;20196;-84
2023/09/17 05:37:27;;;;;;;4.00;3.70;;;19.10;77.70;18.30;96461.00;;;;5094496;28;20218;-84
2023/09/17 05:39:54;;;;;;;4.00;3.70;;;19.10;77.70;18.30;96474.00;;;;5094256;28;20555;-84
2023/09/17 05:42:23;;;;;;;4.20;3.83;;;19.10;77.70;18.30;96484.00;;;;5093439;28;20664;-84
2023/09/17 05:44:50;;;;;;;3.77;3.50;;;19.10;77.70;18.30;96479.00;;;;5093093;28;20202;-84
2023/09/17 05:47:18;;;;;;;3.43;3.17;;;19.10;77.80;18.30;96486.00;;;;5093991;28;20266;-84
2023/09/17 05:49:45;;;;;;;3.23;2.97;;;19.10;77.90;18.30;96495.00;;;;5094643;28;20203;-83
2023/09/17 05:52:12;;;;;;;3.57;3.37;;;19.10;78.00;18.30;96506.00;;;;5093080;28;20195;-84
2023/09/17 05:54:39;;;;;;;2.70;2.60;;;19.10;78.10;18.30;96498.00;;;;5094309;28;20210;-84
2023/09/17 05:57:06;;;;;;;3.50;3.30;;;19.10;78.10;18.30;96496.00;;;;5093830;28;20724;-83
2023/09/17 05:59:35;;;;;;;5.17;4.77;;;19.10;78.20;18.30;96499.00;;;;5094203;28;20206;-84
2023/09/17 06:02:02;;;;;;;4.43;4.13;;;19.10;78.40;18.30;96500.00;;;;5094337;28;20286;-84
2023/09/17 06:04:29;;;;;;;4.27;3.97;;;19.10;78.60;18.30;96496.00;;;;5093370;28;20657;-83
2023/09/17 06:06:57;;;;;;;3.53;3.33;;;19.10;78.70;18.30;96494.00;;;;5094177;28;20241;-83
2023/09/17 06:09:24;;;;;;;3.63;3.23;;;19.10;78.90;18.30;96497.00;;;;5092956;28;20215;-83
2023/09/17 06:11:53;;;;;;;3.00;2.80;;;19.10;79.00;18.40;96498.00;;;;5092771;27;20209;-83
2023/09/17 06:14:20;;;;;;;2.50;2.40;;;19.20;79.10;18.40;96501.00;;;;5092500;28;20203;-83
2023/09/17 06:16:49;;;;;;;3.07;2.87;;;19.20;80.00;18.40;96502.00;;;;5089838;28;20234;-84
2023/09/17 06:19:16;;;;;;;3.00;2.80;;;19.20;79.40;18.50;96509.00;;;;5094144;28;20199;-85
2023/09/17 06:21:44;;;;;;;2.83;2.63;;;19.20;79.50;18.50;96506.00;;;;5093660;28;20207;-84
2023/09/17 06:24:11;;;;;;;5.00;4.60;;;19.30;79.70;18.50;96506.00;;;;5092334;28;20195;-84
2023/09/17 06:26:40;;;;;;;4.60;4.30;;;19.30;79.80;18.60;96504.00;;;;5094117;28;20231;-84
2023/09/17 06:29:07;;;;;;;5.13;4.83;;;19.30;80.50;18.70;96513.00;;;;5094071;28;20327;-84
2023/09/17 06:31:34;;;;;;;4.57;4.27;;;19.40;80.10;18.70;96505.00;;;;5090343;28;20199;-83
2023/09/17 06:34:03;;;;;;;4.23;3.93;;;19.40;80.20;18.80;96511.00;;;;5092579;28;20201;-84
2023/09/17 06:36:30;;;;;;;4.30;4.00;;;19.50;80.50;18.80;96503.00;;;;5095587;28;20220;-81
2023/09/17 06:38:59;;;;;;;5.37;4.87;;;19.50;80.60;18.90;96508.00;;;;5097693;28;20275;-82
2023/09/17 06:41:26;;;;;;;5.43;4.93;;;19.60;80.60;19.00;96505.00;;;;5095098;28;20778;-83
2023/09/17 06:43:53;;;;;;;4.53;4.13;;;19.70;80.80;19.00;96513.00;;;;5094186;28;20282;-83
2023/09/17 06:46:23;;;;;;;4.83;4.10;;;19.70;81.00;19.10;96510.00;;;;5093708;28;20241;-83
2023/09/17 06:48:51;;;;;;;5.07;4.67;;;19.80;81.00;19.20;96507.00;;;;5090913;28;20227;-83
2023/09/17 06:51:20;;;;;;;5.00;4.60;;;19.90;81.00;19.30;96509.00;;;;5097908;28;20262;-83
2023/09/17 06:53:47;;;;;;;5.30;4.90;;;19.90;81.10;19.30;96516.00;;;;5092905;28;20191;-82
2023/09/17 06:56:16;;;;;;;5.23;4.77;;;20.00;81.10;19.40;96518.00;;;;5093919;28;20237;-83
2023/09/17 06:58:43;;;;;;;4.80;4.37;;;20.10;81.10;19.50;96523.00;;;;5086728;28;20720;-83
2023/09/17 07:01:11;;;;;;;5.50;5.00;;;20.10;81.10;19.60;96546.00;;;;5091994;28;20195;-83
2023/09/17 07:03:38;;;;;;;6.00;5.50;;;20.20;81.00;19.60;96557.00;;;;5088175;28;20202;-83
2023/09/17 07:06:06;;;;;;;5.80;5.30;;;20.30;81.00;19.70;96544.00;;;;5089117;28;20302;-83
2023/09/17 07:08:35;;;;;;;5.10;4.70;;;20.40;81.00;19.80;96552.00;;;;5093036;28;20205;-82
2023/09/17 07:11:04;;;;;;;5.80;5.30;;;20.40;81.30;19.90;96540.00;;;;5091206;28;20255;-82
2023/09/17 07:13:31;;;;;;;6.77;6.17;;;20.50;81.40;20.00;96547.00;;;;5090475;28;20196;-84
2023/09/17 07:15:58;;;;;;;5.67;5.17;;;20.60;81.70;20.10;96547.00;;;;5090412;28;20218;-83
2023/09/17 07:18:26;;;;;;;7.30;6.70;;;20.70;81.90;20.20;96542.00;;;;5093032;28;20210;-83
2023/09/17 07:20:59;;;;;;;6.50;6.00;;;20.80;81.90;20.30;96540.00;;;;5092842;28;20215;-83
2023/09/17 07:23:27;;;;;;;6.67;5.93;;;20.80;81.90;20.40;96542.00;;;;5093992;28;20214;-82
2023/09/17 07:25:55;;;;;;;6.63;6.03;;;20.90;81.90;20.50;96542.00;;;;5092964;28;20302;-83
2023/09/17 07:28:23;;;;;;;6.07;5.57;;;21.00;82.00;20.60;96543.00;;;;5088120;28;20233;-83
2023/09/17 07:30:56;;;;;;;5.93;5.33;;;21.10;82.20;20.70;96544.00;;;;5093514;28;20630;-83
2023/09/17 07:33:23;;;;;;;5.90;5.40;;;21.20;82.20;20.80;96543.00;;;;5093073;28;20199;-83
2023/09/17 07:35:50;;;;;;;7.23;5.10;;;21.30;82.10;20.90;96543.00;;;;5091909;28;20635;-83
2023/09/17 07:38:18;;;;;;;5.40;4.90;;;21.40;82.10;21.00;96545.00;;;;5092319;28;20226;-84
2023/09/17 07:40:45;;;;;;;5.53;5.03;;;21.50;82.10;21.10;96539.00;;;;5093574;28;20758;-82
2023/09/17 07:43:14;;;;;;;4.80;4.50;;;21.60;82.00;21.20;96542.00;;;;5094292;28;20203;-83
2023/09/17 07:45:41;;;;;;;4.93;4.60;;;21.60;82.00;21.30;96544.00;;;;5095102;28;20795;-83
2023/09/17 07:48:08;;;;;;;5.33;4.93;;;21.80;82.30;21.40;96545.00;;;;5103426;28;20269;-83
2023/09/17 07:50:37;;;;;;;5.83;5.33;;;21.80;81.90;21.40;96542.00;;;;5093325;28;20242;-83
2023/09/17 07:53:05;;;;;;;6.23;5.67;;;21.90;81.80;21.50;96548.00;;;;5092836;28;20723;-83
2023/09/17 07:55:32;;;;;;;6.20;5.70;;;22.00;81.70;21.60;96552.00;;;;5091759;28;20306;-83
2023/09/17 07:57:59;;;;;;;6.43;5.90;;;22.10;81.70;21.80;96547.00;;;;5093752;28;20218;-82
2023/09/17 08:00:30;;;;;;;6.40;5.90;;;22.20;82.00;21.90;96550.00;;;;5093171;28;20210;-82
2023/09/17 08:02:57;;;;;;;6.60;6.10;;;22.30;82.00;22.00;96553.00;;;;5091553;28;20207;-82
2023/09/17 08:05:27;;;;;;;5.90;5.40;;;22.40;81.90;22.10;96547.00;;;;5092923;28;20770;-83
2023/09/17 08:07:54;;;;;;;6.23;5.73;;;22.50;81.70;22.30;96549.00;;;;5090662;28;20313;-83
2023/09/17 08:10:22;;;;;;;5.87;5.40;;;22.70;81.60;22.40;96548.00;;;;5090413;28;20704;-83
2023/09/17 08:12:49;;;;;;;5.10;4.70;;;22.80;81.20;22.50;96557.00;;;;5089090;28;20758;-83
2023/09/17 08:15:17;;;;;;;5.13;4.73;;;22.90;81.10;22.60;96564.00;;;;5088836;28;20241;-83
2023/09/17 08:17:45;;;;;;;4.47;4.17;;;23.00;81.30;22.70;96560.00;;;;5086372;28;21128;-80
2023/09/17 08:20:13;;;;;;;5.17;4.70;;;23.10;81.10;22.80;96567.00;;;;5091094;28;20213;-82
2023/09/17 08:22:40;;;;;;;5.90;5.40;;;23.20;80.90;23.00;96576.00;;;;5092239;28;20234;-83
2023/09/17 08:25:09;;;;;;;5.33;4.93;;;23.40;81.50;23.10;96569.00;;;;5093608;28;20679;-83
2023/09/17 08:27:37;;;;;;;6.53;5.93;;;23.50;80.80;23.20;96573.00;;;;5090136;28;20694;-84
2023/09/17 08:30:07;;;;;;;6.30;5.70;;;23.60;80.80;23.40;96569.00;;;;5093228;28;20207;-83
2023/09/17 08:32:34;;;;;;;4.87;4.47;;;23.70;80.80;23.50;96576.00;;;;5094308;28;20214;-83
2023/09/17 08:35:04;;;;;;;4.67;4.27;;;23.80;80.50;23.60;96576.00;;;;5089042;28;20195;-83
2023/09/17 08:37:31;;;;;;;4.63;4.27;;;23.90;80.50;23.70;96573.00;;;;5091584;28;20203;-82
2023/09/17 08:39:59;;;;;;;5.37;4.87;;;24.00;79.90;23.80;96568.00;;;;5093008;28;20289;-82
2023/09/17 08:42:28;;;;;;;5.03;4.63;;;24.20;79.90;24.00;96571.00;;;;5094659;28;20203;-82
2023/09/17 08:44:59;;;;;;;5.00;4.60;;;24.30;80.00;24.10;96570.00;;;;5089891;28;20200;-82
2023/09/17 08:47:26;;;;;;;4.63;4.33;;;24.40;79.50;24.30;96572.00;;;;5096861;28;20310;-83
2023/09/17 08:49:53;;;;;;;4.77;4.20;;;24.60;79.70;24.40;96574.00;;;;5095163;28;20274;-84
2023/09/17 08:52:26;;;;;;;4.47;4.00;;;24.70;79.80;24.50;96573.00;;;;5097485;28;20209;-82
2023/09/17 08:54:56;;;;;;;5.10;4.63;;;24.80;79.70;24.70;96579.00;;;;5098932;28;20238;-82
2023/09/17 08:57:26;;;;;;;4.73;4.23;;;24.90;79.20;24.80;96580.00;;;;5097247;28;20211;-82
2023/09/17 09:00:08;;;;;;;5.00;4.47;;;25.10;79.10;24.90;96579.00;;;;5098048;28;20290;-82
2023/09/17 09:02:44;;;;;;;5.33;4.83;;;25.20;79.00;25.10;96584.00;;;;5095753;28;20246;-81
2023/09/17 09:05:14;;;;;;;5.23;4.73;;;25.30;78.30;25.20;96578.00;;;;5094111;28;20193;-83
2023/09/17 09:07:45;;;;;;;4.57;4.17;;;25.50;78.10;25.40;96588.00;;;;5086937;28;20212;-83
2023/09/17 09:10:16;;;;;;;5.60;5.10;;;25.60;78.20;25.50;96588.00;;;;5089590;28;20570;-83
2023/09/17 09:12:47;;;;;;;4.53;4.23;;;25.80;77.90;25.70;96589.00;;;;5100248;28;20267;-83
2023/09/17 09:15:14;;;;;;;4.93;4.53;;;25.90;77.30;25.80;96584.00;;;;5093163;28;20206;-83
2023/09/17 09:17:42;;;;;;;5.17;4.50;;;26.00;77.30;25.90;96585.00;;;;5095935;28;20646;-84
2023/09/17 09:20:14;;;;;;;4.80;4.50;;;26.10;76.70;26.10;96585.00;;;;5103582;28;20197;-83
2023/09/17 09:22:45;;;;;;;4.57;4.22;;;26.30;76.40;26.20;96579.00;;;;5087713;28;20199;-83
2023/09/17 09:25:16;;;;;;;4.73;4.43;;;26.40;76.40;26.40;96577.00;;;;5088847;28;20207;-83
2023/09/17 09:27:44;;;;;;;4.65;4.05;;;26.60;75.70;26.50;96587.00;;;;5093741;28;20691;-83
2023/09/17 09:30:14;;;;;;;4.43;4.13;;;26.70;75.40;26.70;96577.00;;;;5084068;28;20219;-85
2023/09/17 09:32:43;;;;;;;5.18;3.53;;;26.80;74.40;26.80;96588.00;;;;5087558;28;20620;-83
2023/09/17 09:35:11;;;;;;;3.50;3.30;;;26.90;74.30;26.90;96591.00;;;;5095663;28;20755;-84
2023/09/17 09:37:39;;;;;;;3.53;3.28;;;27.10;74.80;27.00;96595.00;;;;5084478;28;20605;-83
2023/09/17 09:40:10;;;;;;;4.25;3.95;;;27.20;74.30;27.20;96585.00;;;;5093493;28;20200;-83
2023/09/17 09:42:37;;;;;;;3.70;3.40;;;27.30;73.50;27.30;96586.00;;;;5091117;28;20195;-83
2023/09/17 09:45:06;;;;;;;4.22;3.92;;;27.40;73.30;27.40;96588.00;;;;5096193;28;20282;-82
2023/09/17 09:47:34;;;;;;;3.78;3.47;;;27.50;73.10;27.50;96591.00;;;;5099162;28;20264;-83
2023/09/17 09:50:01;;;;;;;3.70;3.40;;;27.60;73.00;27.60;96591.00;;;;5090046;28;20198;-83
2023/09/17 09:52:29;;;;;;;4.88;3.70;;;27.70;72.20;27.60;96590.00;;;;5074889;28;20565;-83
2023/09/17 09:54:57;;;;;;;3.33;3.13;;;27.80;71.60;27.70;96584.00;;;;5091424;28;20215;-83
2023/09/17 09:57:26;;;;;;;3.55;3.25;;;27.90;72.00;27.90;96584.00;;;;5086970;28;20286;-83
2023/09/17 09:59:53;;;;;;;3.70;3.40;;;28.00;71.80;28.00;96584.00;;;;5089065;28;20196;-84
2023/09/17 10:02:24;;;;;;;3.60;3.40;;;28.10;72.00;28.10;96585.00;;;;5082154;28;20298;-84
2023/09/17 10:04:52;;;;;;;3.17;2.97;;;28.20;71.50;28.20;96591.00;;;;5083534;28;20207;-84
2023/09/17 10:07:19;;;;;;;3.03;2.83;;;28.30;71.40;28.30;96591.00;;;;5090589;28;20783;-84
2023/09/17 10:09:48;;;;;;;3.70;3.40;;;28.40;71.20;28.30;96582.00;;;;5084472;28;20199;-84
2023/09/17 10:12:16;;;;;;;3.30;3.10;;;28.50;70.50;28.40;96581.00;;;;5088478;28;20201;-82
2023/09/17 10:14:45;;;;;;;3.03;2.83;;;28.60;70.40;28.50;96585.00;;;;5090743;28;20196;-82
2023/09/17 10:17:14;;;;;;;3.15;2.95;;;28.60;69.90;28.60;96583.00;;;;5089757;28;20301;-84
2023/09/17 10:19:43;;;;;;;4.00;3.70;;;28.70;69.70;28.70;96585.00;;;;5088544;28;20268;-84
2023/09/17 10:22:13;;;;;;;3.13;2.92;;;28.80;69.80;28.70;96585.00;;;;5080940;28;20741;-83
2023/09/17 10:24:41;;;;;;;3.00;2.80;;;28.90;68.60;28.80;96587.00;;;;5086299;28;20196;-83
2023/09/17 10:27:09;;;;;;;3.47;3.08;;;28.90;68.20;28.80;96587.00;;;;5093705;28;20219;-84
2023/09/17 10:29:38;;;;;;;3.20;3.00;;;29.00;68.50;28.90;96583.00;;;;5088903;28;20198;-84
2023/09/17 10:32:09;;;;;;;2.90;2.70;;;29.10;68.10;29.00;96585.00;;;;5083930;28;20191;-84
2023/09/17 10:34:37;;;;;;;2.95;2.75;;;29.10;67.90;29.00;96584.00;;;;5094347;28;20244;-82
2023/09/17 10:37:06;;;;;;;3.20;3.00;;;29.10;67.90;29.10;96590.00;;;;5088376;28;20211;-84
2023/09/17 10:39:34;;;;;;;2.58;2.38;;;29.20;66.30;29.10;96582.00;;;;5080966;28;20290;-84
2023/09/17 10:42:03;;;;;;;2.75;2.55;;;29.20;66.60;29.20;96578.00;;;;5085885;28;20283;-82
2023/09/17 10:44:31;;;;;;;2.95;2.75;;;29.30;67.10;29.20;96579.00;;;;5092354;28;20203;-82
2023/09/17 10:47:04;;;;;;;2.90;2.40;;;29.40;66.30;29.20;96571.00;;;;5093719;28;20215;-82
2023/09/17 10:49:36;;;;;;;2.60;2.42;;;29.40;64.70;29.20;96568.00;;;;5089334;28;20219;-82
2023/09/17 10:52:07;;;;;;;2.88;2.67;;;29.40;64.40;29.20;96569.00;;;;5091962;28;20192;-82
2023/09/17 10:54:35;;;;;;;2.15;2.03;;;29.40;64.80;29.20;96560.00;;;;5088758;28;20296;-82
2023/09/17 10:57:08;;;;;;;2.53;2.38;;;29.40;65.00;29.20;96553.00;;;;5093462;28;20234;-83
2023/09/17 10:59:36;;;;;;;2.75;2.55;;;29.40;65.40;29.20;96555.00;;;;5075385;28;20216;-83
2023/09/17 11:02:06;;;;;;;2.70;2.50;;;29.40;64.70;29.20;96550.00;;;;5086686;28;20287;-82